Aeroporto :
LOGIN :

Iscrizione | Disclaimer

   EN    FR    IT 

 










Sommario :    VFR   VFR Marginale   IFR   IFR Intensivo   IFR Molto Intensivo
Visibilità : 
Base nubi : 
>= 8 km
>= 3000ft
5 / 8 km
1000 / 3000 ft
1500m / 5 km
500 / 1000 ft
800 / 1500m
200 / 500 ft
< 800m
< 200 ft
Simboli :   Temporali  Nebbia  Neve Forte  Precipitazioni Forti  Vento > 20 kt
SIGMETs :   Varie  Temporali  Ghiacco  Turbolenza  Onda orograficha  Ceneri Vulcaniche






- Altitudine del aeroporto : 97 ft
- Codice IATA : EBJ


EKEB - Esbjerg

ULTIMO METAR :
  • 200120Z AUTO 32023KT 9999 -SN SCT012/// SCT071/// BKN081/// 01/M04 Q1012

METARs OBSOLETI :
  • 200050Z AUTO 32024G36KT 1900 -SN SCT009/// BKN013/// BKN042/// BKN056/// M00/M01 Q1012
  • 200020Z AUTO 32024G38KT 9999 BKN034/// BKN073/// 02/M04 Q1012
  • 192350Z AUTO 32023KT 9999 SCT035/// BKN040/// 02/M04 Q1012
  • 192320Z AUTO 32028G39KT 9999 FEW037/// BKN065/// 03/M05 Q1011
  • 192250Z AUTO 32026G38KT 9999 BKN035/// BKN051/// 03/M02 Q1011

Previsioni scadute.



MetMap, La meteo Aeronautica in un colpo d'occhio ! - Copyright ORBIFLY Dicembre 2007 - Disclaimer

ORBIFLY MET'MAP TEAM :

Programmazione e sviluppo : Alexandra Zaïnal
Concezione : Baudouin d'Aumeries
Aiuto per la programmazione : Marc-Olivier Méhu
Supporto tecnico e logistico : Manuel Goepfert
Aiuto per la traduzione : Arnaldo La Scala

Contatto : metmap@orbifly.com




FONTI E CREDITI :

   NOAA